Latest Weather Observations for Douglas River

IDD60801

Issued at 7:35 pm CST Saturday 25 October 2014 (issued every 30 minutes, with the page automatically refreshed every 10 minutes)

About weather observations | Map of weather stations | Latest weather observations for NT | Other Formats
Station Details ID: 014901 Name: DOUGLAS RIVER Lat: -13.83 Lon: 131.19 Height: 42.8 m
Data from the previous 72 hours. | See also: Recent months at Douglas River
Date/Time
CST
Temp
°C
App
Temp
°C
Dew
Point
Rel
Hum
%
Delta-T
°C
Wind Press
QNH
hPa
Press
MSL
hPa
Rain
since 9 am
mm
Dir
 
Spd
km/h
Gust
km/h
Spd
kts
Gust
kts
25/07:30pm 29.6 29.6 9.7 29 11.2 NE 0 0 0 0 1010.8 1010.5 0.0
25/07:00pm 32.0 30.0 6.2 20 13.9 NE 6 7 3 4 1010.6 1010.3 0.0
25/06:30pm 34.5 30.8 4.6 15 15.9 E 13 15 7 8 1010.3 1010.0 0.0
25/06:00pm 36.0 33.8 7.8 17 15.9 E 9 13 5 7 1010.0 1009.7 0.0
25/05:30pm 37.0 33.2 5.9 14 17.1 SE 15 19 8 10 1009.7 1009.4 0.0
25/05:00pm 37.1 33.8 6.5 15 17.0 SE 13 24 7 13 1009.6 1009.3 0.0
25/04:30pm 37.3 34.8 8.2 17 16.6 SE 11 24 6 13 1009.7 1009.4 0.0
25/04:00pm 36.5 33.6 8.1 17 16.1 E 13 20 7 11 1009.8 1009.5 0.0
25/03:30pm 36.9 33.7 8.3 17 16.3 SE 15 22 8 12 1010.2 1009.9 0.0
25/03:00pm 37.4 32.9 8.4 17 16.6 E 22 32 12 17 1010.6 1010.3 0.0
25/02:30pm 36.5 32.6 8.7 18 15.9 E 19 28 10 15 1011.0 1010.7 0.0
25/02:00pm 36.7 33.7 10.8 21 15.3 SE 17 32 9 17 1011.4 1011.1 0.0
25/01:30pm 36.9 33.3 11.9 22 15.0 SE 22 35 12 19 1012.0 1011.7 0.0
25/01:00pm 36.8 33.9 12.3 23 14.8 SE 19 33 10 18 1012.6 1012.3 0.0
25/12:30pm 36.0 35.3 13.2 25 13.9 NE 9 17 5 9 1013.1 1012.8 0.0
25/12:00pm 34.3 32.5 13.4 28 12.7 E 15 26 8 14 1013.9 1013.6 0.0
25/11:30am 32.9 33.1 14.3 32 11.4 NNE 6 11 3 6 1014.4 1014.1 0.0
25/11:00am 33.7 33.6 13.9 30 12.1 N 7 13 4 7 1014.8 1014.5 0.0
25/10:30am 32.7 32.3 15.1 34 10.9 S 11 17 6 9 1015.3 1015.0 0.0
25/10:00am 31.4 31.5 16.6 41 9.3 E 11 17 6 9 1015.7 1015.4 0.0
25/09:30am 30.7 32.1 18.6 48 7.8 SW 9 17 5 9 1015.9 1015.6 0.0
25/09:00am 29.6 33.1 21.1 60 5.7 N 4 7 2 4 1016.3 1016.0 0.0
25/08:30am 28.3 31.2 20.7 63 5.0 WNW 6 9 3 5 1016.3 1016.0 0.0
25/08:00am 27.1 31.8 21.9 73 3.5 CALM 0 0 0 0 1016.1 1015.8 0.0
25/07:30am 25.0 29.5 21.5 81 2.3 CALM 0 0 0 0 1015.6 1015.3 0.0
25/07:00am 23.2 27.4 20.9 87 1.5 CALM 0 0 0 0 1015.2 1014.9 0.0
25/06:30am 22.3 25.1 20.4 89 1.2 NE 6 7 3 4 1015.0 1014.7 0.0
25/06:00am 22.3 26.2 20.4 89 1.2 NNE 0 0 0 0 1014.5 1014.2 0.0
25/05:30am 23.0 26.7 20.7 87 1.5 NNW 2 6 1 3 1013.9 1013.6 0.0
25/05:00am 23.1 27.0 20.3 84 1.8 CALM 0 0 0 0 1013.7 1013.4 0.0
25/04:30am 23.8 27.8 20.6 82 2.1 CALM 0 0 0 0 1013.5 1013.2 0.0
25/04:00am 23.2 27.3 20.7 86 1.6 CALM 0 0 0 0 1013.3 1013.0 0.0
25/03:30am 23.6 27.6 20.5 83 2.0 CALM 0 0 0 0 1013.1 1012.8 0.0
25/03:00am 24.3 28.5 20.9 81 2.2 CALM 0 0 0 0 1013.1 1012.8 0.0
25/02:30am 24.6 28.7 20.8 79 2.5 CALM 0 0 0 0 1013.3 1013.0 0.0
25/02:00am 24.4 28.5 20.7 80 2.4 CALM 0 0 0 0 1013.6 1013.3 0.0
25/01:30am 26.0 30.1 20.8 73 3.4 CALM 0 0 0 0 1013.6 1013.3 0.0
25/01:00am 26.3 30.5 21.0 72 3.5 CALM 0 0 0 0 1013.6 1013.3 0.0
25/12:30am 26.2 30.6 21.4 75 3.2 CALM 0 0 0 0 1013.6 1013.3 0.0
25/12:00am 26.5 31.0 21.5 74 3.3 NE 0 0 0 0 1013.4 1013.1 0.0
 
Date/Time
CST
Temp
°C
App
Temp
°C
Dew
Point
Rel
Hum
%
Delta-T
°C
Wind Press
QNH
hPa
Press
MSL
hPa
Rain
since 9 am
mm
Dir
 
Spd
km/h
Gust
km/h
Spd
kts
Gust
kts
24/11:30pm 26.9 31.5 21.7 73 3.5 CALM 0 0 0 0 1013.5 1013.2 0.0
24/11:00pm 27.3 30.6 21.8 72 3.7 NW 7 9 4 5 1013.2 1012.9 0.0
24/10:30pm 27.7 30.5 21.6 69 4.1 NW 9 19 5 10 1012.9 1012.6 0.0
24/10:00pm 28.1 30.9 21.5 67 4.4 NW 9 13 5 7 1012.8 1012.5 0.0
24/09:30pm 28.3 31.1 21.6 67 4.5 NW 9 15 5 8 1012.1 1011.8 0.0
24/09:00pm 28.7 30.3 21.4 64 4.9 WNW 15 24 8 13 1011.5 1011.2 0.0
24/08:30pm 29.2 30.8 21.4 63 5.2 WNW 15 30 8 16 1010.9 1010.6 0.0
24/08:00pm 30.1 30.7 18.7 50 7.4 NW 13 22 7 12 1010.1 1009.8 0.0
24/07:30pm 31.8 32.7 12.9 31 11.3 CALM 0 0 0 0 1009.5 1009.2 0.0
24/07:00pm 32.9 32.5 11.0 26 12.8 S 4 7 2 4 1009.3 1009.0 0.0
24/06:30pm 34.6 33.9 12.0 25 13.5 S 7 9 4 5 1009.1 1008.8 0.0
24/06:00pm 35.7 34.2 10.4 21 14.8 SSE 9 13 5 7 1008.8 1008.5 0.0
24/05:30pm 37.1 34.4 7.5 16 16.7 SSE 11 17 6 9 1008.5 1008.2 0.0
24/05:00pm 36.5 34.2 9.1 19 15.8 SSE 11 15 6 8 1008.5 1008.2 0.0
24/04:30pm 37.8 32.9 7.0 15 17.3 ESE 22 28 12 15 1008.7 1008.4 0.0
24/04:00pm 38.2 33.8 7.2 15 17.5 SSE 20 30 11 16 1008.7 1008.4 0.0
24/03:30pm 38.7 36.2 8.2 15 17.5 ESE 11 19 6 10 1008.9 1008.6 0.0
24/03:00pm 38.5 34.5 8.1 16 17.4 ESE 19 28 10 15 1009.1 1008.8 0.0
24/02:30pm 36.4 31.4 7.9 17 16.1 ESE 24 37 13 20 1009.4 1009.1 0.0
24/02:00pm 38.2 33.4 7.5 15 17.4 SE 22 39 12 21 1009.7 1009.4 0.0
24/01:30pm 38.0 32.8 7.4 15 17.3 SE 24 39 13 21 1010.3 1010.0 0.0
24/01:00pm 37.1 32.0 7.7 16 16.6 SE 24 39 13 21 1011.0 1010.7 0.0
24/12:30pm 36.8 34.2 9.3 18 15.9 E 13 24 7 13 1011.7 1011.4 0.0
24/12:00pm 35.0 32.6 11.3 23 14.0 E 15 24 8 13 1012.4 1012.1 0.0
24/11:30am 34.9 34.1 12.9 26 13.3 ENE 9 20 5 11 1012.9 1012.6 0.0
24/11:00am 33.9 33.9 14.2 30 12.1 NNE 7 13 4 7 1013.7 1013.4 0.0
24/10:30am 33.7 33.7 16.3 35 11.0 E 11 22 6 12 1014.3 1014.0 0.0
24/10:00am 32.0 32.9 17.6 42 9.2 ENE 9 15 5 8 1014.8 1014.5 0.0
24/09:30am 30.5 32.7 19.3 51 7.3 NNE 6 9 3 5 1015.1 1014.8 0.0
24/09:00am 29.6 32.0 18.9 52 6.9 WSW 4 9 2 5 1015.3 1015.0 -
24/08:30am 28.4 31.8 20.2 61 5.4 N 2 6 1 3 1015.2 1014.9 -
24/08:00am 27.1 30.0 20.7 68 4.2 E 6 9 3 5 1015.0 1014.7 -
24/07:30am 25.1 29.4 21.2 79 2.6 CALM 0 6 0 3 1014.6 1014.3 -
24/07:00am 22.9 26.1 20.6 87 1.5 E 4 7 2 4 1014.1 1013.8 -
24/06:30am 22.1 25.5 20.1 88 1.3 NE 2 7 1 4 1013.8 1013.5 -
24/06:00am 23.0 27.2 20.9 88 1.4 CALM 0 0 0 0 1013.2 1012.9 -
24/05:30am 22.7 26.8 20.7 88 1.3 CALM 0 0 0 0 1013.1 1012.8 -
24/05:00am 23.7 27.3 20.6 83 2.0 WNW 2 6 1 3 1013.0 1012.7 -
24/04:30am 24.0 27.1 21.1 84 1.9 NW 6 9 3 5 1012.8 1012.5 -
24/04:00am 24.0 27.4 21.0 83 2.0 W 4 7 2 4 1012.8 1012.5 -
24/03:30am 24.8 29.2 21.3 81 2.3 CALM 0 6 0 3 1012.5 1012.2 -
24/03:00am 25.1 29.5 21.3 79 2.5 CALM 0 0 0 0 1012.5 1012.2 -
24/02:30am 25.7 30.2 21.6 78 2.7 CALM 0 6 0 3 1012.9 1012.6 -
24/02:00am 26.4 30.9 21.6 75 3.2 CALM 0 0 0 0 1013.3 1013.0 -
24/01:30am 26.7 30.8 21.6 73 3.4 N 2 7 1 4 1013.4 1013.1 -
24/01:00am 26.6 30.8 21.7 74 3.3 NNE 2 6 1 3 1013.6 1013.3 -
24/12:30am 26.9 30.4 21.8 73 3.4 NW 6 11 3 6 1013.4 1013.1 -
24/12:00am 26.9 30.9 22.0 74 3.3 N 4 9 2 5 1013.6 1013.3 -
 
Date/Time
CST
Temp
°C
App
Temp
°C
Dew
Point
Rel
Hum
%
Delta-T
°C
Wind Press
QNH
hPa
Press
MSL
hPa
Rain
since 9 am
mm
Dir
 
Spd
km/h
Gust
km/h
Spd
kts
Gust
kts
23/11:30pm 27.1 30.5 21.6 72 3.7 NNW 6 13 3 7 1013.5 1013.2 -
23/11:00pm 27.0 30.4 21.6 72 3.6 NNW 6 11 3 6 1013.2 1012.9 -
23/10:30pm 27.4 30.5 21.4 70 4.0 NNW 7 11 4 6 1013.0 1012.7 -
23/10:00pm 27.9 30.1 21.1 66 4.5 WNW 11 20 6 11 1012.4 1012.1 -
23/09:30pm 28.3 30.0 20.9 64 4.9 WNW 13 20 7 11 1011.8 1011.5 -
23/09:00pm 28.7 29.7 21.0 63 5.1 WNW 17 28 9 15 1011.4 1011.1 0.0
23/08:30pm 29.0 30.6 19.9 58 6.0 WNW 11 20 6 11 1010.9 1010.6 -
23/08:00pm 29.2 29.9 12.1 34 10.0 CALM 0 0 0 0 1010.3 1010.0 -
23/07:30pm 31.2 30.9 11.3 29 11.6 S 4 7 2 4 1010.0 1009.7 -
23/07:00pm 31.8 31.6 11.7 29 11.8 SE 4 7 2 4 1009.7 1009.4 -
23/06:30pm 33.5 33.2 11.4 26 13.0 S 4 7 2 4 1009.3 1009.0 -
23/06:00pm 35.7 33.6 9.6 20 15.1 SSE 11 15 6 8 1008.9 1008.6 -
23/05:30pm 37.0 36.1 9.1 18 16.1 NE 4 11 2 6 1008.6 1008.3 -
23/05:00pm 37.9 34.2 6.5 14 17.5 SE 15 26 8 14 1008.5 1008.2 -
23/04:30pm 37.4 33.1 7.1 15 17.0 E 19 26 10 14 1008.6 1008.3 -
23/04:00pm 36.7 33.8 6.6 15 16.7 SSE 11 17 6 9 1008.8 1008.5 -
23/03:30pm 37.0 33.5 7.3 16 16.7 S 15 22 8 12 1009.0 1008.7 -
23/03:00pm 38.1 34.5 8.2 16 17.1 SE 17 28 9 15 1009.4 1009.1 -
23/02:30pm 37.4 34.9 8.4 17 16.6 ENE 11 22 6 12 1009.7 1009.4 -
23/02:00pm 37.1 35.3 9.3 18 16.1 E 9 17 5 9 1010.0 1009.7 -
23/01:30pm 36.8 35.1 9.9 19 15.7 ENE 9 20 5 11 1010.7 1010.4 -
23/01:00pm 36.2 35.1 12.1 23 14.5 SSW 9 15 5 8 1011.4 1011.1 -
23/12:30pm 35.5 35.0 12.7 25 13.8 NNE 7 13 4 7 1012.0 1011.7 -
23/12:00pm 34.7 33.1 12.8 26 13.2 E 13 20 7 11 1012.8 1012.5 -
23/11:30am 33.8 33.3 14.9 32 11.7 ENE 11 20 6 11 1013.4 1013.1 0.0
23/11:00am 33.3 35.4 18.0 40 9.9 S 4 9 2 5 1013.9 1013.6 0.0
23/10:30am 32.3 - 17.8 42 9.3 - - - - - 1014.2 1013.9 0.0
23/10:00am 31.0 32.6 17.9 45 8.4 NNE 6 13 3 7 1014.8 1014.5 0.0
23/09:30am 30.4 32.1 18.5 49 7.7 NW 7 13 4 7 1014.9 1014.6 0.0
23/09:00am 30.4 32.4 18.8 50 7.5 NNE 6 9 3 5 1015.2 1014.9 0.0
23/08:30am 28.9 32.2 21.4 64 5.0 NNE 6 11 3 6 1014.9 1014.6 0.0
23/08:00am 27.5 31.5 22.0 72 3.7 N 4 7 2 4 1014.7 1014.4 0.0
23/07:30am 25.5 30.3 22.2 82 2.2 CALM 0 0 0 0 1014.4 1014.1 0.0
23/07:00am 24.1 28.7 21.8 87 1.5 CALM 0 0 0 0 1014.1 1013.8 0.0
23/06:30am 23.3 27.9 21.8 91 1.0 CALM 0 0 0 0 1013.9 1013.6 0.0
23/06:00am 23.1 27.6 21.6 91 1.0 CALM 0 0 0 0 1013.6 1013.3 0.0
23/05:30am 23.8 28.5 22.0 90 1.2 CALM 0 0 0 0 1013.0 1012.7 0.0
23/05:00am 23.5 28.1 21.7 90 1.2 CALM 0 0 0 0 1012.5 1012.2 0.0
23/04:30am 23.5 28.0 21.5 88 1.3 CALM 0 0 0 0 1012.5 1012.2 0.0
23/04:00am 23.8 28.4 21.7 88 1.4 CALM 0 0 0 0 1012.5 1012.2 0.0
23/03:30am 23.9 28.4 21.5 86 1.6 CALM 0 0 0 0 1012.5 1012.2 0.0
23/03:00am 24.4 28.9 21.5 84 1.9 CALM 0 0 0 0 1012.5 1012.2 0.0
23/02:30am 25.2 30.1 22.4 84 1.9 CALM 0 0 0 0 1012.7 1012.4 0.0
23/02:00am 25.7 30.6 22.3 81 2.3 CALM 0 0 0 0 1012.8 1012.5 0.0
23/01:30am 25.9 30.8 22.3 80 2.4 CALM 0 0 0 0 1013.0 1012.7 0.0
23/01:00am 26.3 31.2 22.4 79 2.6 CALM 0 0 0 0 1013.2 1012.9 0.0
23/12:30am 26.7 31.3 22.4 77 2.9 N 2 7 1 4 1013.1 1012.8 0.0
23/12:00am 26.9 31.1 22.5 77 3.0 NNE 4 7 2 4 1013.3 1013.0 0.0
 
Date/Time
CST
Temp
°C
App
Temp
°C
Dew
Point
Rel
Hum
%
Delta-T
°C
Wind Press
QNH
hPa
Press
MSL
hPa
Rain
since 9 am
mm
Dir
 
Spd
km/h
Gust
km/h
Spd
kts
Gust
kts
22/11:30pm 27.0 30.8 22.4 76 3.1 NNW 6 9 3 5 1013.0 1012.7 0.0
22/11:00pm 27.2 30.9 22.2 74 3.4 NNW 6 11 3 6 1012.6 1012.3 0.0
22/10:30pm 27.8 30.8 22.0 70 3.9 WNW 9 13 5 7 1012.5 1012.2 0.0
22/10:00pm 28.2 31.2 22.0 69 4.2 WNW 9 15 5 8 1012.2 1011.9 0.0
22/09:30pm 28.8 31.0 21.8 66 4.7 WNW 13 20 7 11 1012.1 1011.8 0.0
22/09:00pm 29.2 31.5 21.3 62 5.3 WNW 11 17 6 9 1011.6 1011.3 0.0
22/08:30pm 29.2 31.1 15.8 44 8.3 CALM 0 0 0 0 1011.0 1010.7 0.0
22/08:00pm 30.2 32.2 15.9 42 8.9 CALM 0 0 0 0 1010.7 1010.4 0.0

Other Formats:

Comma delimited format used in spreadsheet applications
http://www.bom.gov.au/fwo/IDD60801/IDD60801.94128.axf

JavaScript Object Notation format (JSON) in row-major order
http://www.bom.gov.au/fwo/IDD60801/IDD60801.94128.json